Kanesville, Utah
Current Conditions -  °F | °C
As of 3:53 PM on Wednesday 26 Nov 2014 (Local Time) from KOGD Reporting Station
Clear Clear  
Wind Chill: 57°   Ceiling: Unl
Heat Index: 57°   Visibility: 10mi
Dew Point: 28°   Wind: 3mph
Humidity: 33%   Direction: 170°S
Pressure: 30.35"   Gusts: NA
Location:  41.1783°N, 112.12°W
Report Text: KOGD 262253Z AUTO 17003KT 10SM CLR 14/M02 A3035 RMK AO2 SLP260 T01391022 TSNO
Loading
Personal Weather Stations






























Interactive Weather Map New forecast layout! Learn more

10-Day Weather Forecast

Advertisements
Track Severe Weather on mobile